Time;durP1;ratioP1;P1;durP2;ratioP2;P2;SDS_P1;SDS_P2;PMS_P1;PMS_P2;Temp;Humidity;BMP_temperature;BMP_pressure;BME280_temperature;BME280_humidity;BME280_pressure;Samples;Min_cycle;Max_cycle;Signal;HPM_P1;HPM_P2
2022/10/03 00:02:25;;;;;;;;;;;;;;;20.64;50.48;102135.94;5123026;27;20349;-38
2022/10/03 00:04:59;;;;;;;;;;;;;;;20.63;50.42;102137.88;5123823;27;19928;-38
2022/10/03 00:07:32;;;;;;;;;;;;;;;20.63;50.49;102148.94;5121378;27;19967;-37
2022/10/03 00:10:04;;;;;;;;;;;;;;;20.63;50.39;102143.41;5125143;27;20014;-38
2022/10/03 00:12:50;;;;;;;;;;;;;;;20.64;50.41;102149.75;5122287;27;19973;-38
2022/10/03 00:15:17;;;;;;;;;;;;;;;20.63;50.32;102154.47;5124121;27;19963;-37
2022/10/03 00:17:49;;;;;;;;;;;;;;;20.64;50.52;102149.75;5125329;27;20011;-37
2022/10/03 00:20:21;;;;;;;;;;;;;;;20.63;50.45;102148.94;5124441;27;20010;-38
2022/10/03 00:23:03;;;;;;;;;;;;;;;20.64;50.54;102153.41;5123731;27;19967;-37
2022/10/03 00:28:16;;;;;;;;;;;;;;;20.63;50.40;102154.47;5167338;27;20396;-35
2022/10/03 00:30:45;;;;;;;;;;;;;;;20.64;50.55;102152.53;5147075;27;19923;-35
2022/10/03 00:33:16;;;;;;;;;;;;;;;20.64;50.59;102155.31;5145106;27;19974;-35
2022/10/03 00:35:53;;;;;;;;;;;;;;;20.64;50.55;102164.47;5161125;27;19974;-37
2022/10/03 00:38:26;;;;;;;;;;;;;;;20.64;50.41;102158.06;5162561;27;20409;-37
2022/10/03 00:41:11;;;;;;;;;;;;;;;20.64;50.44;102160.84;5164691;27;19978;-37
2022/10/03 00:43:43;;;;;;;;;;;;;;;20.64;50.31;102158.94;5147942;27;20025;-37
2022/10/03 00:46:16;;;;;;;;;;;;;;;20.64;50.38;102167.25;5157217;27;20029;-37
2022/10/03 00:48:48;;;;;;;;;;;;;;;20.63;50.38;102168.31;5163237;27;19934;-37
2022/10/03 00:51:32;;;;;;;;;;;;;;;20.63;50.52;102171.06;5161005;27;20026;-37
2022/10/03 00:54:17;;;;;;;;;;;;;;;20.64;50.42;102167.25;5162425;27;20374;-37
2022/10/03 00:56:47;;;;;;;;;;;;;;;20.63;50.67;102165.53;5129938;27;19929;-37
2022/10/03 01:01:55;;;;;;;;;;;;;;;20.64;50.48;102174.69;5163555;27;19926;-35
2022/10/03 01:04:41;;;;;;;;;;;;;;;20.64;50.38;102170.00;5150647;27;20034;-35
2022/10/03 01:07:14;;;;;;;;;;;;;;;20.64;50.56;102175.53;5133807;27;20412;-35
2022/10/03 01:09:50;;;;;;;;;;;;;;;20.64;50.46;102177.44;5151537;27;19951;-35
2022/10/03 01:12:35;;;;;;;;;;;;;;;20.65;50.50;102179.97;5136545;27;19958;-35
2022/10/03 01:15:21;;;;;;;;;;;;;;;20.63;50.44;102182.16;5133494;27;20056;-35
2022/10/03 01:17:52;;;;;;;;;;;;;;;20.65;50.39;102181.91;5144893;27;20443;-35
2022/10/03 01:20:38;;;;;;;;;;;;;;;20.64;50.51;102178.31;5155999;27;20014;-35
2022/10/03 01:23:09;;;;;;;;;;;;;;;20.64;50.52;102181.06;5138640;27;20169;-35
2022/10/03 01:25:38;;;;;;;;;;;;;;;20.64;50.50;102178.31;5159303;27;19962;-35
2022/10/03 01:31:09;;;;;;;;;;;;;;;20.64;50.35;102172.78;5126393;27;20067;-35
2022/10/03 01:33:41;;;;;;;;;;;;;;;20.64;50.48;102178.31;5154350;27;19930;-35
2022/10/03 01:36:18;;;;;;;;;;;;;;;20.64;50.55;102177.44;5133646;27;20014;-35
2022/10/03 01:38:47;;;;;;;;;;;;;;;20.64;50.50;102178.31;5153527;27;19963;-35
2022/10/03 01:41:21;;;;;;;;;;;;;;;20.65;50.57;102176.38;5148539;27;20030;-37
2022/10/03 01:43:49;;;;;;;;;;;;;;;20.65;50.49;102181.91;5153131;27;20243;-37
2022/10/03 01:46:22;;;;;;;;;;;;;;;20.65;50.55;102181.91;5129773;27;20398;-37
2022/10/03 01:48:52;;;;;;;;;;;;;;;20.65;50.50;102190.22;5136429;27;19935;-37
2022/10/03 01:51:37;;;;;;;;;;;;;;;20.64;50.55;102183.84;5149800;27;19981;-38
2022/10/03 01:54:25;;;;;;;;;;;;;;;20.64;50.45;102183.84;5139399;27;19923;-38
2022/10/03 01:56:53;;;;;;;;;;;;;;;20.64;50.58;102181.06;5137529;27;20014;-37
2022/10/03 01:59:20;;;;;;;;;;;;;;;20.64;50.51;102189.38;5143074;27;20217;-38
2022/10/03 02:01:49;;;;;;;;;;;;;;;20.63;50.52;102189.63;5151348;27;20005;-37
2022/10/03 02:04:34;;;;;;;;;;;;;;;20.64;50.45;102200.44;5135324;27;19927;-38
2022/10/03 02:07:05;;;;;;;;;;;;;;;20.65;50.34;102209.59;5138676;27;19954;-37
2022/10/03 02:09:36;;;;;;;;;;;;;;;20.64;50.28;102217.06;5151817;27;20085;-37
2022/10/03 02:12:06;;;;;;;;;;;;;;;20.64;50.42;102214.28;5141969;27;20017;-37
2022/10/03 02:14:34;;;;;;;;;;;;;;;20.64;50.46;102217.06;5119357;27;19982;-37
2022/10/03 02:17:02;;;;;;;;;;;;;;;20.64;50.45;102211.53;5135140;27;19954;-37
2022/10/03 02:19:48;;;;;;;;;;;;;;;20.64;50.56;102218.97;5138459;27;19970;-38
2022/10/03 02:22:15;;;;;;;;;;;;;;;20.65;50.45;102212.34;5129660;27;19958;-37
2022/10/03 02:25:01;;;;;;;;;;;;;;;20.64;50.47;102207.88;5138441;27;20496;-38
2022/10/03 02:27:40;;;;;;;;;;;;;;;20.65;50.35;102209.59;5121968;27;20018;-38
2022/10/03 02:30:15;;;;;;;;;;;;;;;20.65;50.39;102212.34;5138417;27;20528;-36
2022/10/03 02:33:00;;;;;;;;;;;;;;;20.64;50.39;102211.53;5137983;27;19955;-37
2022/10/03 02:35:34;;;;;;;;;;;;;;;20.64;50.39;102216.19;5121558;27;20414;-36
2022/10/03 02:41:05;;;;;;;;;;;;;;;20.65;50.39;102206.81;5173261;27;19925;-34
2022/10/03 02:43:50;;;;;;;;;;;;;;;20.65;50.39;102220.66;5135183;27;20015;-34
2022/10/03 02:46:36;;;;;;;;;;;;;;;20.65;50.42;102217.91;5137668;27;20434;-37
2022/10/03 02:49:21;;;;;;;;;;;;;;;20.65;50.55;102217.91;5139541;27;20267;-37
2022/10/03 02:51:54;;;;;;;;;;;;;;;20.65;50.40;102218.72;5150351;27;20010;-36
2022/10/03 02:54:40;;;;;;;;;;;;;;;20.65;50.39;102217.91;5148494;27;19954;-37
2022/10/03 02:57:25;;;;;;;;;;;;;;;20.65;50.50;102227.03;5120963;27;20363;-36
2022/10/03 03:00:03;;;;;;;;;;;;;;;20.63;50.42;102220.91;5126887;27;19962;-36
2022/10/03 03:02:48;;;;;;;;;;;;;;;20.64;50.35;102227.28;5115148;27;20022;-36
2022/10/03 03:08:17;;;;;;;;;;;;;;;20.63;50.47;102231.97;5163817;27;19930;-34
2022/10/03 03:10:51;;;;;;;;;;;;;;;20.65;50.45;102237.28;5135011;27;20344;-34
2022/10/03 03:13:25;;;;;;;;;;;;;;;20.65;50.49;102235.34;5151116;27;20023;-34
2022/10/03 03:16:03;;;;;;;;;;;;;;;20.64;50.49;102235.56;5153493;27;19982;-35
2022/10/03 03:18:45;;;;;;;;;;;;;;;20.65;50.55;102237.28;5150459;27;19935;-34
2022/10/03 03:21:15;;;;;;;;;;;;;;;20.64;50.45;102236.44;5136003;27;20018;-34
2022/10/03 03:24:00;;;;;;;;;;;;;;;20.65;50.26;102238.09;5154254;27;19966;-34
2022/10/03 03:26:34;;;;;;;;;;;;;;;20.65;50.40;102237.28;5134901;27;20048;-34
2022/10/03 03:29:05;;;;;;;;;;;;;;;20.64;50.54;102239.19;5151737;27;20377;-34
2022/10/03 03:31:37;;;;;;;;;;;;;;;20.64;50.52;102236.44;5134789;27;20397;-34
2022/10/03 03:34:06;;;;;;;;;;;;;;;20.64;50.41;102239.19;5150196;27;20353;-34
2022/10/03 03:36:42;;;;;;;;;;;;;;;20.64;50.52;102241.09;5137858;27;19973;-34
2022/10/03 03:39:28;;;;;;;;;;;;;;;20.64;50.42;102236.44;5151979;27;20006;-34
2022/10/03 03:44:53;;;;;;;;;;;;;;;20.65;50.42;102231.72;5172833;27;20305;-34
2022/10/03 03:47:26;;;;;;;;;;;;;;;20.65;50.43;102240.03;5150507;27;19959;-37
2022/10/03 03:50:02;;;;;;;;;;;;;;;20.64;50.42;102228.13;5149318;27;20042;-36
2022/10/03 03:52:34;;;;;;;;;;;;;;;20.65;50.41;102240.03;5170168;27;20464;-37
2022/10/03 03:55:19;;;;;;;;;;;;;;;20.64;50.66;102233.66;5163643;27;20018;-36
2022/10/03 03:58:05;;;;;;;;;;;;;;;20.65;50.40;102234.50;5135068;27;20045;-37
2022/10/03 04:00:38;;;;;;;;;;;;;;;20.66;50.33;102244.47;5137524;27;20006;-36
2022/10/03 04:03:24;;;;;;;;;;;;;;;20.65;50.34;102245.56;5149242;27;20369;-36
2022/10/03 04:06:04;;;;;;;;;;;;;;;20.65;50.43;102246.41;5130836;27;19958;-37
2022/10/03 04:08:50;;;;;;;;;;;;;;;20.65;50.49;102249.19;5153316;27;19959;-36
2022/10/03 04:11:36;;;;;;;;;;;;;;;20.65;50.38;102256.66;5135381;27;19962;-36
2022/10/03 04:14:22;;;;;;;;;;;;;;;20.64;50.42;102255.81;5138572;27;19924;-36
2022/10/03 04:19:56;;;;;;;;;;;;;;;20.64;50.42;102250.28;5135134;27;19955;-37
2022/10/03 04:22:42;;;;;;;;;;;;;;;20.65;50.55;102251.09;5133729;27;19959;-37
2022/10/03 04:25:19;;;;;;;;;;;;;;;20.64;50.41;102250.28;5144768;27;19962;-36
2022/10/03 04:27:50;;;;;;;;;;;;;;;20.64;50.45;102261.34;5137335;27;19923;-36
2022/10/03 04:30:21;;;;;;;;;;;;;;;20.64;50.33;102255.81;5152284;27;20076;-37
2022/10/03 04:32:50;;;;;;;;;;;;;;;20.65;50.32;102259.41;5153898;27;20392;-36
2022/10/03 04:35:21;;;;;;;;;;;;;;;20.64;50.40;102253.03;5148209;27;20519;-36
2022/10/03 04:37:58;;;;;;;;;;;;;;;20.65;50.40;102259.41;5145832;27;19932;-36
2022/10/03 04:40:43;;;;;;;;;;;;;;;20.65;50.35;102262.19;5152459;27;19986;-36
2022/10/03 04:43:10;;;;;;;;;;;;;;;20.65;50.42;102260.25;5136920;27;20018;-37
2022/10/03 04:45:44;;;;;;;;;;;;;;;20.64;50.48;102255.81;5148070;27;20291;-37
2022/10/03 04:48:15;;;;;;;;;;;;;;;20.65;50.42;102256.66;5143576;27;19950;-37
2022/10/03 04:51:00;;;;;;;;;;;;;;;20.65;50.46;102256.66;5130928;27;20034;-36
2022/10/03 04:53:32;;;;;;;;;;;;;;;20.65;50.42;102251.94;5139139;27;20390;-37
2022/10/03 04:56:11;;;;;;;;;;;;;;;20.65;50.50;102254.72;5134103;27;19970;-37
2022/10/03 04:58:39;;;;;;;;;;;;;;;20.65;50.51;102254.72;5138903;27;19971;-36
2022/10/03 05:01:10;;;;;;;;;;;;;;;20.65;50.49;102257.47;5139326;27;20010;-36
2022/10/03 05:03:55;;;;;;;;;;;;;;;20.65;50.38;102260.25;5136168;27;20008;-37
2022/10/03 05:06:26;;;;;;;;;;;;;;;20.65;50.66;102256.66;5122037;27;20338;-36
2022/10/03 05:09:12;;;;;;;;;;;;;;;20.65;50.52;102253.88;5146156;27;19965;-37
2022/10/03 05:11:55;;;;;;;;;;;;;;;20.65;50.45;102259.41;5124477;27;19986;-36
2022/10/03 05:14:41;;;;;;;;;;;;;;;20.65;50.45;102268.56;5121128;27;19955;-36
2022/10/03 05:17:08;;;;;;;;;;;;;;;20.66;50.41;102263.84;5125692;27;20177;-36
2022/10/03 05:19:52;;;;;;;;;;;;;;;20.66;50.56;102269.38;5132185;27;20396;-36
2022/10/03 05:22:24;;;;;;;;;;;;;;;20.65;50.52;102274.09;5138623;27;20007;-36
2022/10/03 05:24:54;;;;;;;;;;;;;;;20.66;50.36;102280.47;5136894;27;19962;-37
2022/10/03 05:27:26;;;;;;;;;;;;;;;20.65;50.51;102270.47;5135813;27;20075;-37
2022/10/03 05:30:12;;;;;;;;;;;;;;;20.65;50.49;102282.38;5124677;27;19950;-36
2022/10/03 05:32:39;;;;;;;;;;;;;;;20.65;50.55;102282.38;5120805;27;19974;-37
2022/10/03 05:35:24;;;;;;;;;;;;;;;20.65;50.52;102282.38;5115836;27;20010;-37
2022/10/03 05:38:10;;;;;;;;;;;;;;;20.65;50.52;102279.63;5121555;27;19971;-37
2022/10/03 05:40:36;;;;;;;;;;;;;;;20.65;50.38;102285.16;5118595;27;20529;-36
2022/10/03 05:43:07;;;;;;;;;;;;;;;20.66;50.57;102286.00;5116339;27;19986;-37
2022/10/03 05:45:51;;;;;;;;;;;;;;;20.65;50.49;102287.94;5133653;27;20022;-36
2022/10/03 05:48:37;;;;;;;;;;;;;;;20.66;50.43;102286.00;5138167;27;19949;-36
2022/10/03 05:51:23;;;;;;;;;;;;;;;20.65;50.57;102296.22;5115337;27;19974;-36
2022/10/03 05:53:55;;;;;;;;;;;;;;;20.65;50.33;102293.47;5122313;28;20418;-37
2022/10/03 05:56:41;;;;;;;;;;;;;;;20.65;50.46;102299.00;5134397;27;19979;-37
2022/10/03 05:59:12;;;;;;;;;;;;;;;20.65;50.42;102301.78;5118422;27;20407;-36
2022/10/03 06:01:46;;;;;;;;;;;;;;;20.64;50.54;102297.34;5134534;27;20379;-37
2022/10/03 06:04:31;;;;;;;;;;;;;;;20.65;50.40;102312.00;5133479;27;19979;-36
2022/10/03 06:07:09;;;;;;;;;;;;;;;20.66;50.49;102311.75;5121931;27;20005;-36
2022/10/03 06:09:46;;;;;;;;;;;;;;;20.65;50.57;102315.59;5135887;27;20010;-36
2022/10/03 06:12:17;;;;;;;;;;;;;;;20.65;50.32;102304.53;5135738;27;19963;-37
2022/10/03 06:15:02;;;;;;;;;;;;;;;20.66;50.48;102313.69;5132728;27;20350;-36
2022/10/03 06:17:35;;;;;;;;;;;;;;;20.65;50.33;102312.84;5136989;27;19928;-37
2022/10/03 06:20:26;;;;;;;;;;;;;;;20.66;50.68;102314.50;5135794;27;19927;-36
2022/10/03 06:23:04;;;;;;;;;;;;;;;20.65;50.47;102320.31;5122242;27;19930;-36
2022/10/03 06:25:51;;;;;;;;;;;;;;;20.65;50.51;102320.31;5138315;27;19968;-37
2022/10/03 06:28:35;;;;;;;;;;;;;;;20.65;50.28;102321.16;5123039;27;20022;-36
2022/10/03 06:31:10;;;;;;;;;;;;;;;20.65;50.56;102332.22;5138222;27;19923;-36
2022/10/03 06:36:18;;;;;;;;;;;;;;;20.64;50.33;102316.72;5106417;27;19935;-34
2022/10/03 06:38:51;;;;;;;;;;;;;;;20.65;50.41;102317.53;5091402;28;20016;-37
2022/10/03 06:41:36;;;;;;;;;;;;;;;20.65;50.37;102320.31;5088942;28;19967;-37
2022/10/03 06:44:11;;;;;;;;;;;;;;;20.66;50.49;102321.97;5073115;28;19929;-36
2022/10/03 06:46:49;;;;;;;;;;;;;;;20.66;50.56;102321.97;5090203;28;20026;-37
2022/10/03 06:49:35;;;;;;;;;;;;;;;20.65;50.40;102318.38;5091634;28;20015;-37
2022/10/03 06:52:06;;;;;;;;;;;;;;;20.66;50.51;102319.22;5074003;28;19931;-36
2022/10/03 06:54:40;;;;;;;;;;;;;;;20.65;50.47;102326.69;5088670;28;20020;-37
2022/10/03 06:57:26;;;;;;;;;;;;;;;20.66;50.54;102324.75;5070752;28;20273;-37
2022/10/03 07:02:36;;;;;;;;;;;;;;;20.65;50.54;102323.06;5170529;27;19937;-34
2022/10/03 07:05:21;;;;;;;;;;;;;;;20.65;50.50;102329.44;5157190;27;20425;-34
2022/10/03 07:08:01;;;;;;;;;;;;;;;20.66;50.40;102330.28;5158007;27;19965;-34
2022/10/03 07:10:47;;;;;;;;;;;;;;;20.66;50.49;102335.81;5169399;27;20270;-37
2022/10/03 07:13:33;;;;;;;;;;;;;;;20.65;50.43;102340.53;5155131;27;19955;-36
2022/10/03 07:16:23;;;;;;;;;;;;;;;20.66;50.41;102341.34;5159352;27;20161;-36
2022/10/03 07:19:13;;;;;;;;;;;;;;;20.65;50.41;102342.47;5159239;27;19926;-36
2022/10/03 07:21:58;;;;;;;;;;;;;;;20.65;50.46;102346.06;5154690;27;20006;-37
2022/10/03 07:24:43;;;;;;;;;;;;;;;20.65;50.45;102342.47;5160254;27;20196;-37
2022/10/03 07:27:29;;;;;;;;;;;;;;;20.66;50.36;102353.25;5161618;27;20030;-36
2022/10/03 07:30:12;;;;;;;;;;;;;;;20.65;50.48;102354.34;5176970;27;20072;-37
2022/10/03 07:32:58;;;;;;;;;;;;;;;20.65;50.40;102354.34;5156761;27;19989;-36
2022/10/03 07:38:56;;;;;;;;;;;;;;;20.65;50.37;102353.53;5153301;27;20034;-37
2022/10/03 07:39:08;;;;;;;;;;;;;;;20.66;50.33;102357.97;5154236;27;20382;-37
2022/10/03 07:41:39;;;;;;;;;;;;;;;20.65;50.30;102359.91;5142977;27;19981;-37
2022/10/03 07:44:16;;;;;;;;;;;;;;;20.66;50.37;102363.50;5170130;27;19931;-36
2022/10/03 07:46:49;;;;;;;;;;;;;;;20.66;50.41;102369.03;5172849;27;19962;-37
2022/10/03 07:49:36;;;;;;;;;;;;;;;20.66;50.47;102374.56;5169828;27;19974;-37
2022/10/03 07:52:22;;;;;;;;;;;;;;;20.65;50.43;102376.50;5153264;27;20022;-37
2022/10/03 07:54:54;;;;;;;;;;;;;;;20.66;50.38;102389.25;5150543;27;20366;-36
2022/10/03 07:57:26;;;;;;;;;;;;;;;20.65;50.51;102379.28;5150484;27;20061;-36
2022/10/03 08:00:12;;;;;;;;;;;;;;;20.66;50.57;102383.72;5151669;27;20074;-36
2022/10/03 08:02:43;;;;;;;;;;;;;;;20.66;50.54;102388.41;5134517;27;19971;-37
2022/10/03 08:05:29;;;;;;;;;;;;;;;20.66;50.32;102391.19;5156083;27;20376;-36
2022/10/03 08:08:01;;;;;;;;;;;;;;;20.66;50.43;102391.19;5135848;27;19966;-37
2022/10/03 08:10:48;;;;;;;;;;;;;;;20.66;50.25;102388.41;5149643;27;20018;-36
2022/10/03 08:13:33;;;;;;;;;;;;;;;20.66;50.41;102391.19;5126632;27;20022;-37
2022/10/03 08:16:06;;;;;;;;;;;;;;;20.66;50.47;102396.72;5115667;27;20397;-36
2022/10/03 08:18:51;;;;;;;;;;;;;;;20.66;50.42;102396.72;5135663;27;20420;-37
2022/10/03 08:21:37;;;;;;;;;;;;;;;20.66;50.49;102402.25;5119411;27;20071;-36
2022/10/03 08:24:07;;;;;;;;;;;;;;;20.67;50.49;102392.84;5128554;27;19923;-36
2022/10/03 08:26:38;;;;;;;;;;;;;;;20.66;50.33;102399.47;5141117;27;20389;-37
2022/10/03 08:29:23;;;;;;;;;;;;;;;20.65;50.43;102395.88;5135320;27;19971;-37
2022/10/03 08:32:11;;;;;;;;;;;;;;;20.65;50.30;102400.59;5134943;27;19968;-37
2022/10/03 08:34:56;;;;;;;;;;;;;;;20.65;50.49;102406.94;5117992;27;20013;-37
2022/10/03 08:37:42;;;;;;;;;;;;;;;20.65;50.34;102406.13;5120114;27;20497;-37
2022/10/03 08:40:28;;;;;;;;;;;;;;;20.65;50.46;102404.19;5119523;27;19927;-36
2022/10/03 08:43:05;;;;;;;;;;;;;;;20.66;50.53;102405.03;5122527;27;19966;-37
2022/10/03 08:45:40;;;;;;;;;;;;;;;20.65;50.50;102409.72;5115152;27;20343;-36
2022/10/03 08:48:21;;;;;;;;;;;;;;;20.66;50.33;102407.78;5131098;27;20014;-37
2022/10/03 08:50:54;;;;;;;;;;;;;;;20.66;50.34;102403.09;5137331;27;19970;-36
2022/10/03 08:55:58;;;;;;;;;;;;;;;20.65;50.48;102398.66;5158343;27;19926;-34
2022/10/03 08:58:30;;;;;;;;;;;;;;;20.66;50.44;102405.84;5152237;27;19969;-34
2022/10/03 09:01:16;;;;;;;;;;;;;;;20.65;50.38;102395.88;5151947;27;20071;-34
2022/10/03 09:04:01;;;;;;;;;;;;;;;20.65;50.55;102381.22;5136322;27;19923;-34
2022/10/03 09:06:47;;;;;;;;;;;;;;;20.66;50.37;102377.34;5139955;27;20022;-34
2022/10/03 09:09:52;;;;;;;;;;;;;;;20.66;50.45;102386.47;5122615;27;19927;-34
2022/10/03 09:12:41;;;;;;;;;;;;;;;20.65;50.37;102384.81;5138136;27;19970;-34
2022/10/03 09:15:26;;;;;;;;;;;;;;;20.66;50.38;102385.66;5133033;27;20030;-39
2022/10/03 09:18:11;;;;;;;;;;;;;;;20.65;50.30;102387.56;5131300;27;19988;-34
2022/10/03 09:20:45;;;;;;;;;;;;;;;20.66;50.36;102386.47;5154276;27;20369;-34
2022/10/03 09:23:17;;;;;;;;;;;;;;;20.65;50.52;102384.81;5153062;27;20363;-34
2022/10/03 09:25:49;;;;;;;;;;;;;;;20.65;50.51;102379.28;5151145;27;20464;-36
2022/10/03 09:28:35;;;;;;;;;;;;;;;20.66;50.46;102389.25;5149828;27;20010;-36
2022/10/03 09:31:04;;;;;;;;;;;;;;;20.66;50.40;102394.78;5138310;27;19930;-37
2022/10/03 09:36:26;;;;;;;;;;;;;;;20.66;50.36;102388.41;5163767;27;20384;-34
2022/10/03 09:38:55;;;;;;;;;;;;;;;20.66;50.34;102380.09;5148264;27;20006;-34
2022/10/03 09:41:40;;;;;;;;;;;;;;;20.65;50.48;102373.75;5145461;27;20397;-36
2022/10/03 09:44:26;;;;;;;;;;;;;;;20.66;50.49;102375.41;5130908;27;19976;-37
2022/10/03 09:47:27;;;;;;;;;;;;;;;20.66;50.47;102366.28;5129396;27;20718;-37
2022/10/03 09:49:48;;;;;;;;;;;;;;;20.66;50.38;102369.88;5118173;27;20006;-37
2022/10/03 09:52:21;;;;;;;;;;;;;;;20.66;50.30;102369.03;5143865;27;19962;-36
2022/10/03 09:54:58;;;;;;;;;;;;;;;20.66;50.36;102366.28;5146815;27;19981;-36
2022/10/03 09:57:37;;;;;;;;;;;;;;;20.66;50.37;102369.03;5148391;27;20022;-36
2022/10/03 10:00:10;;;;;;;;;;;;;;;20.66;50.30;102366.28;5145975;27;19963;-37
2022/10/03 10:02:45;;;;;;;;;;;;;;;20.66;50.48;102369.88;5145945;27;20492;-37
2022/10/03 10:05:31;;;;;;;;;;;;;;;20.67;50.28;102367.94;5146863;27;19955;-37
2022/10/03 10:08:16;;;;;;;;;;;;;;;20.66;50.50;102361.56;5129372;27;20023;-37
2022/10/03 10:10:51;;;;;;;;;;;;;;;20.66;50.31;102369.88;5132324;27;20003;-36
2022/10/03 10:13:24;;;;;;;;;;;;;;;20.67;50.45;102373.47;5126994;27;20491;-37
2022/10/03 10:16:10;;;;;;;;;;;;;;;20.67;50.33;102367.94;5128775;27;20063;-36
2022/10/03 10:18:39;;;;;;;;;;;;;;;20.66;50.47;102369.03;5131060;27;19923;-37
2022/10/03 10:21:24;;;;;;;;;;;;;;;20.66;50.29;102361.56;5145695;27;19999;-36
2022/10/03 10:24:10;;;;;;;;;;;;;;;20.65;50.46;102356.28;5132004;27;19981;-36
2022/10/03 10:26:48;;;;;;;;;;;;;;;20.66;50.21;102357.97;5129677;27;19931;-37
2022/10/03 10:29:24;;;;;;;;;;;;;;;20.66;50.34;102364.34;5145964;27;19971;-36
2022/10/03 10:32:00;;;;;;;;;;;;;;;20.66;50.38;102363.50;5144665;27;20010;-37
2022/10/03 10:34:46;;;;;;;;;;;;;;;20.66;50.39;102355.19;5145168;27;20029;-37
2022/10/03 10:37:32;;;;;;;;;;;;;;;20.66;50.31;102357.97;5131746;27;20490;-36
2022/10/03 10:40:17;;;;;;;;;;;;;;;20.65;50.45;102351.59;5129322;27;20397;-36
2022/10/03 10:43:03;;;;;;;;;;;;;;;20.66;50.39;102349.66;5129453;27;20459;-37
2022/10/03 10:45:49;;;;;;;;;;;;;;;20.65;50.49;102346.06;5128155;27;20009;-37
2022/10/03 10:48:34;;;;;;;;;;;;;;;20.66;50.34;102350.50;5111359;27;20010;-36
2022/10/03 10:51:08;;;;;;;;;;;;;;;20.66;50.29;102344.13;5133389;27;20454;-36
2022/10/03 10:53:54;;;;;;;;;;;;;;;20.67;50.33;102351.31;5131516;27;20056;-36
2022/10/03 10:56:41;;;;;;;;;;;;;;;20.65;50.35;102348.81;5115922;27;20002;-36
2022/10/03 10:59:27;;;;;;;;;;;;;;;20.66;50.53;102350.50;5114333;28;19935;-36
2022/10/03 11:02:12;;;;;;;;;;;;;;;20.66;50.47;102346.88;5115181;28;20369;-36
2022/10/03 11:04:58;;;;;;;;;;;;;;;20.65;50.45;102348.81;5119238;27;20426;-36
2022/10/03 11:07:43;;;;;;;;;;;;;;;20.65;50.26;102348.81;5116645;28;20026;-37
2022/10/03 11:13:26;;;;;;;;;;;;;;;20.66;50.32;102347.72;5171919;27;19925;-34
2022/10/03 11:16:02;;;;;;;;;;;;;;;20.66;50.51;102338.59;5133029;27;20014;-34
2022/10/03 11:18:38;;;;;;;;;;;;;;;20.65;50.48;102343.28;5149340;27;19931;-34
2022/10/03 11:21:11;;;;;;;;;;;;;;;20.67;50.40;102348.56;5146753;27;20375;-34
2022/10/03 11:23:56;;;;;;;;;;;;;;;20.66;50.34;102344.13;5149920;27;20363;-34
2022/10/03 11:26:33;;;;;;;;;;;;;;;20.66;50.47;102344.13;5136256;27;20010;-34
2022/10/03 11:29:18;;;;;;;;;;;;;;;20.65;50.58;102337.75;5152676;27;19997;-34
2022/10/03 11:32:07;;;;;;;;;;;;;;;20.65;50.48;102343.28;5135397;27;20022;-34
2022/10/03 11:34:53;;;;;;;;;;;;;;;20.66;50.28;102341.34;5134572;27;19963;-37
2022/10/03 11:37:39;;;;;;;;;;;;;;;20.66;50.40;102336.66;5138355;27;20373;-36
2022/10/03 11:40:27;;;;;;;;;;;;;;;20.66;50.34;102327.50;5129871;27;20022;-36
2022/10/03 11:43:12;;;;;;;;;;;;;;;20.66;50.36;102324.75;5136282;27;20033;-37
2022/10/03 11:45:41;;;;;;;;;;;;;;;20.66;50.47;102330.28;5133090;27;19932;-36
2022/10/03 11:48:11;;;;;;;;;;;;;;;20.66;50.41;102320.03;5135990;27;20344;-37
2022/10/03 11:50:58;;;;;;;;;;;;;;;20.65;50.34;102315.59;5156083;27;20398;-37
2022/10/03 11:53:43;;;;;;;;;;;;;;;20.66;50.37;102321.97;5130832;27;19987;-37
2022/10/03 11:56:13;;;;;;;;;;;;;;;20.66;50.34;102322.81;5135212;27;20014;-36
2022/10/03 12:01:23;;;;;;;;;;;;;;;20.66;50.36;102333.06;5158587;27;20393;-35
2022/10/03 12:03:58;;;;;;;;;;;;;;;20.65;50.55;102326.69;5155461;27;19927;-34
2022/10/03 12:09:16;;;;;;;;;;;;;;;20.66;50.38;102324.75;5134458;27;20196;-34
2022/10/03 12:14:23;;;;;;;;;;;;;;;20.67;50.32;102315.34;5178703;27;19925;-36
2022/10/03 12:17:04;;;;;;;;;;;;;;;20.67;50.41;102315.34;5143415;27;20015;-36
2022/10/03 12:19:36;;;;;;;;;;;;;;;20.65;50.34;102315.59;5148270;27;20013;-36
2022/10/03 12:22:06;;;;;;;;;;;;;;;20.66;50.36;102308.97;5163841;27;19989;-36
2022/10/03 12:24:33;;;;;;;;;;;;;;;20.67;50.50;102307.03;5166203;27;20011;-36
2022/10/03 12:27:19;;;;;;;;;;;;;;;20.67;50.35;102307.03;5148416;27;20053;-37
2022/10/03 12:29:46;;;;;;;;;;;;;;;20.66;50.41;102308.97;5150584;27;19962;-37
2022/10/03 12:32:23;;;;;;;;;;;;;;;20.66;50.33;102311.75;5164957;27;19962;-36
2022/10/03 12:35:08;;;;;;;;;;;;;;;20.66;50.39;102308.13;5163110;27;20400;-37
2022/10/03 12:37:53;;;;;;;;;;;;;;;20.66;50.36;102302.59;5146376;27;19954;-36
2022/10/03 12:40:23;;;;;;;;;;;;;;;20.66;50.47;102305.38;5147109;27;20362;-36
2022/10/03 12:43:00;;;;;;;;;;;;;;;20.66;50.39;102306.19;5141294;27;19923;-37
2022/10/03 12:45:28;;;;;;;;;;;;;;;20.66;50.42;102305.38;5162305;27;19931;-36
2022/10/03 12:48:00;;;;;;;;;;;;;;;20.66;50.30;102302.59;5142739;27;19934;-37
2022/10/03 12:50:34;;;;;;;;;;;;;;;20.67;50.39;102307.03;5166012;27;20048;-37
2022/10/03 12:55:54;;;;;;;;;;;;;;;20.65;50.43;102315.59;5161713;27;19925;-34
2022/10/03 12:58:24;;;;;;;;;;;;;;;20.67;50.33;102315.34;5148696;27;20342;-35
2022/10/03 13:01:09;;;;;;;;;;;;;;;20.66;50.44;102320.03;5150260;27;19963;-34
2022/10/03 13:03:51;;;;;;;;;;;;;;;20.66;50.37;102314.50;5135093;27;19923;-37
2022/10/03 13:06:37;;;;;;;;;;;;;;;20.66;50.39;102317.28;5130493;27;20377;-36
2022/10/03 13:09:26;;;;;;;;;;;;;;;20.66;50.45;102305.38;5126811;27;20272;-37
2022/10/03 13:11:57;;;;;;;;;;;;;;;20.66;50.56;102306.19;5149582;27;19963;-36
2022/10/03 13:14:29;;;;;;;;;;;;;;;20.66;50.42;102303.44;5131467;27;20026;-36
2022/10/03 13:16:59;;;;;;;;;;;;;;;20.66;50.53;102299.84;5131455;27;19967;-36
2022/10/03 13:19:26;;;;;;;;;;;;;;;20.67;50.47;102295.97;5154424;27;19985;-36
2022/10/03 13:22:12;;;;;;;;;;;;;;;20.65;50.16;102301.78;5153613;27;20014;-36
2022/10/03 13:24:41;;;;;;;;;;;;;;;20.67;50.31;102296.78;5137533;27;20051;-36
2022/10/03 13:30:16;;;;;;;;;;;;;;;20.67;50.35;102296.78;5181338;27;19949;-34
2022/10/03 13:32:43;;;;;;;;;;;;;;;20.66;50.48;102286.00;5142875;27;20030;-34
2022/10/03 13:38:09;;;;;;;;;;;;;;;20.66;50.54;102286.00;5142327;27;20022;-34
2022/10/03 13:40:36;;;;;;;;;;;;;;;20.66;50.49;102284.06;5161892;27;19923;-34
2022/10/03 13:43:02;;;;;;;;;;;;;;;20.67;50.52;102279.34;5162651;27;19931;-36
2022/10/03 13:45:27;;;;;;;;;;;;;;;20.66;50.41;102278.53;5157325;27;20340;-37
2022/10/03 13:47:54;;;;;;;;;;;;;;;20.67;50.38;102273.81;5149660;27;20374;-36
2022/10/03 13:50:30;;;;;;;;;;;;;;;20.66;50.36;102272.97;5163461;27;19969;-36
2022/10/03 13:52:59;;;;;;;;;;;;;;;20.66;50.39;102267.44;5162305;27;20473;-37
2022/10/03 13:55:42;;;;;;;;;;;;;;;20.66;50.48;102267.44;5149726;27;19971;-36
2022/10/03 14:01:02;;;;;;;;;;;;;;;20.67;50.39;102258.03;5172768;27;19925;-34
2022/10/03 14:03:31;;;;;;;;;;;;;;;20.67;50.53;102262.75;5154745;27;19976;-34
2022/10/03 14:05:59;;;;;;;;;;;;;;;20.66;50.39;102264.69;5138367;27;20597;-34
2022/10/03 14:08:29;;;;;;;;;;;;;;;20.66;50.46;102267.44;5145077;27;19958;-34
2022/10/03 14:11:14;;;;;;;;;;;;;;;20.66;50.50;102261.06;5164486;27;19931;-34
2022/10/03 14:13:47;;;;;;;;;;;;;;;20.66;50.54;102267.44;5146995;27;20000;-34
2022/10/03 14:18:53;;;;;;;;;;;;;;;20.67;50.45;102266.34;5163949;27;19926;-34
2022/10/03 14:24:21;;;;;;;;;;;;;;;20.66;50.55;102256.38;5178796;27;19925;-34
2022/10/03 14:26:51;;;;;;;;;;;;;;;20.66;50.49;102253.59;5148171;27;19973;-36
2022/10/03 14:29:20;;;;;;;;;;;;;;;20.67;50.32;102259.97;5166920;27;19955;-37